Huvudsida
METAR-TAF:

METAR-TAF

Flygplatser :

Lagos, Nigeria

latitud: 06-35N, longitud: 003-20E, höjd: 40 m

Aktuellt väderrapport

Denna rapport gjordes för 45 minuter sedan, klockan 12:00 UTC
Vind 3 kt från nordväst
Temperatur 33°C
Fuktighet 63%
Tryck 1014 hPa
Sikt: 2500 m
Spridda moln på en höjd av 1400 ft
torrdis

METAR: DNMM 121200Z 31003KT 2500 HZ SCT014 33/25 Q1014 NOSIG

Tid: 13:45 (12:45 UTC)

Väderprognos

Denna rapport gjordes för 2 timmar och 45 minuter sedan, klockan 10:00 UTC
Prognos gäller från 12 kl. 12 UTC till 13 kl. 18 UTC
Vind 6 kt från nord/nordväst
Sikt: 3500 m
Spridda moln på en höjd av 1300 ft
torrdis
Blir
från 12 kl. 16 UTC till 12 kl. 18 UTC
Vind 6 kt från syd
Sikt: 5000 m

TAF: DNMM 121000Z 1212/1318 33006KT 3500 HZ SCT013 BECMG 1216/1218 17006KT 5000

Aktuella väderrapporter och prognoser från 4000 flygplatser (METAR- och TAF-rapporter).

De tillgängliga stationerna syns som gula och röda prickar på kartan.

För musen över prickarna för att se namnen på stationerna.

Klicka sedan för att få väderrapporter och prognoser.

För att ändra kartan: Klicka på de gröna knapparna med ett svart kors på för att zooma in; den gröna knappen med ett streck på för att zooma ut; eller på de gröna pilarna för angränsande kartor.


METAR-TAF: